sensor_id;sensor_type;location;lat;lon;timestamp;P1;durP1;ratioP1;P2;durP2;ratioP2
16928;SDS011;8581;47.334;11.190;2024-01-30T00:02:31;1.33;;;0.90;;
16928;SDS011;8581;47.334;11.190;2024-01-30T00:05:52;1.00;;;0.90;;
16928;SDS011;8581;47.334;11.190;2024-01-30T00:09:20;1.30;;;0.83;;
16928;SDS011;8581;47.334;11.190;2024-01-30T00:12:42;0.70;;;0.70;;
16928;SDS011;8581;47.334;11.190;2024-01-30T00:16:03;1.77;;;0.93;;
16928;SDS011;8581;47.334;11.190;2024-01-30T00:19:26;1.03;;;0.90;;
16928;SDS011;8581;47.334;11.190;2024-01-30T00:22:47;2.60;;;0.90;;
16928;SDS011;8581;47.334;11.190;2024-01-30T00:26:09;1.20;;;1.00;;
16928;SDS011;8581;47.334;11.190;2024-01-30T00:29:31;1.00;;;0.90;;
16928;SDS011;8581;47.334;11.190;2024-01-30T00:32:53;1.23;;;0.97;;
16928;SDS011;8581;47.334;11.190;2024-01-30T00:36:14;0.70;;;0.70;;
16928;SDS011;8581;47.334;11.190;2024-01-30T00:39:35;1.83;;;1.00;;
16928;SDS011;8581;47.334;11.190;2024-01-30T00:42:57;1.50;;;1.20;;
16928;SDS011;8581;47.334;11.190;2024-01-30T00:46:19;1.40;;;1.03;;
16928;SDS011;8581;47.334;11.190;2024-01-30T00:49:40;0.63;;;0.60;;
16928;SDS011;8581;47.334;11.190;2024-01-30T00:53:02;1.93;;;0.83;;
16928;SDS011;8581;47.334;11.190;2024-01-30T00:56:24;1.10;;;1.00;;
16928;SDS011;8581;47.334;11.190;2024-01-30T00:59:45;1.07;;;0.97;;
16928;SDS011;8581;47.334;11.190;2024-01-30T01:03:07;1.03;;;0.80;;
16928;SDS011;8581;47.334;11.190;2024-01-30T01:06:29;0.90;;;0.80;;
16928;SDS011;8581;47.334;11.190;2024-01-30T01:09:50;0.70;;;0.70;;
16928;SDS011;8581;47.334;11.190;2024-01-30T01:13:12;1.93;;;0.60;;
16928;SDS011;8581;47.334;11.190;2024-01-30T01:16:34;0.93;;;0.80;;
16928;SDS011;8581;47.334;11.190;2024-01-30T01:19:55;0.70;;;0.70;;
16928;SDS011;8581;47.334;11.190;2024-01-30T01:23:17;0.70;;;0.70;;
16928;SDS011;8581;47.334;11.190;2024-01-30T01:26:38;0.60;;;0.60;;
16928;SDS011;8581;47.334;11.190;2024-01-30T01:30:00;0.90;;;0.73;;
16928;SDS011;8581;47.334;11.190;2024-01-30T01:33:22;0.80;;;0.70;;
16928;SDS011;8581;47.334;11.190;2024-01-30T01:36:43;0.60;;;0.60;;
16928;SDS011;8581;47.334;11.190;2024-01-30T01:40:05;0.80;;;0.63;;
16928;SDS011;8581;47.334;11.190;2024-01-30T01:43:28;0.70;;;0.70;;
16928;SDS011;8581;47.334;11.190;2024-01-30T01:46:50;0.80;;;0.70;;
16928;SDS011;8581;47.334;11.190;2024-01-30T01:50:12;1.60;;;0.53;;
16928;SDS011;8581;47.334;11.190;2024-01-30T01:53:33;1.50;;;0.70;;
16928;SDS011;8581;47.334;11.190;2024-01-30T01:56:55;1.40;;;0.60;;
16928;SDS011;8581;47.334;11.190;2024-01-30T02:00:16;0.93;;;0.50;;
16928;SDS011;8581;47.334;11.190;2024-01-30T02:03:38;0.60;;;0.50;;
16928;SDS011;8581;47.334;11.190;2024-01-30T02:07:00;0.90;;;0.80;;
16928;SDS011;8581;47.334;11.190;2024-01-30T02:10:21;0.70;;;0.60;;
16928;SDS011;8581;47.334;11.190;2024-01-30T02:13:43;0.80;;;0.53;;
16928;SDS011;8581;47.334;11.190;2024-01-30T02:17:05;0.67;;;0.67;;
16928;SDS011;8581;47.334;11.190;2024-01-30T02:20:26;1.07;;;0.70;;
16928;SDS011;8581;47.334;11.190;2024-01-30T02:23:48;0.63;;;0.60;;
16928;SDS011;8581;47.334;11.190;2024-01-30T02:27:10;0.70;;;0.60;;
16928;SDS011;8581;47.334;11.190;2024-01-30T02:30:31;1.00;;;0.60;;
16928;SDS011;8581;47.334;11.190;2024-01-30T02:33:53;0.60;;;0.50;;
16928;SDS011;8581;47.334;11.190;2024-01-30T02:37:14;0.50;;;0.50;;
16928;SDS011;8581;47.334;11.190;2024-01-30T02:40:36;1.30;;;0.50;;
16928;SDS011;8581;47.334;11.190;2024-01-30T02:43:58;0.50;;;0.50;;
16928;SDS011;8581;47.334;11.190;2024-01-30T02:47:19;0.60;;;0.43;;
16928;SDS011;8581;47.334;11.190;2024-01-30T02:50:41;0.50;;;0.50;;
16928;SDS011;8581;47.334;11.190;2024-01-30T02:54:03;0.70;;;0.70;;
16928;SDS011;8581;47.334;11.190;2024-01-30T02:57:24;0.80;;;0.60;;
16928;SDS011;8581;47.334;11.190;2024-01-30T03:00:46;0.40;;;0.40;;
16928;SDS011;8581;47.334;11.190;2024-01-30T03:04:08;0.50;;;0.50;;
16928;SDS011;8581;47.334;11.190;2024-01-30T03:07:29;0.63;;;0.63;;
16928;SDS011;8581;47.334;11.190;2024-01-30T03:10:51;0.50;;;0.50;;
16928;SDS011;8581;47.334;11.190;2024-01-30T03:14:12;0.87;;;0.50;;
16928;SDS011;8581;47.334;11.190;2024-01-30T03:17:34;0.50;;;0.50;;
16928;SDS011;8581;47.334;11.190;2024-01-30T03:20:56;0.60;;;0.60;;
16928;SDS011;8581;47.334;11.190;2024-01-30T03:24:17;0.47;;;0.40;;
16928;SDS011;8581;47.334;11.190;2024-01-30T03:27:39;0.53;;;0.50;;
16928;SDS011;8581;47.334;11.190;2024-01-30T03:31:01;0.40;;;0.40;;
16928;SDS011;8581;47.334;11.190;2024-01-30T03:34:22;0.67;;;0.40;;
16928;SDS011;8581;47.334;11.190;2024-01-30T03:37:44;0.60;;;0.60;;
16928;SDS011;8581;47.334;11.190;2024-01-30T03:41:07;0.53;;;0.40;;
16928;SDS011;8581;47.334;11.190;2024-01-30T03:44:28;1.80;;;0.40;;
16928;SDS011;8581;47.334;11.190;2024-01-30T03:47:49;0.37;;;0.37;;
16928;SDS011;8581;47.334;11.190;2024-01-30T03:51:11;0.47;;;0.47;;
16928;SDS011;8581;47.334;11.190;2024-01-30T03:54:33;0.90;;;0.50;;
16928;SDS011;8581;47.334;11.190;2024-01-30T03:57:55;0.90;;;0.50;;
16928;SDS011;8581;47.334;11.190;2024-01-30T04:01:16;1.07;;;0.50;;
16928;SDS011;8581;47.334;11.190;2024-01-30T04:04:38;0.97;;;0.60;;
16928;SDS011;8581;47.334;11.190;2024-01-30T04:08:00;0.70;;;0.60;;
16928;SDS011;8581;47.334;11.190;2024-01-30T04:11:21;0.77;;;0.60;;
16928;SDS011;8581;47.334;11.190;2024-01-30T04:14:43;0.60;;;0.50;;
16928;SDS011;8581;47.334;11.190;2024-01-30T04:18:05;0.73;;;0.50;;
16928;SDS011;8581;47.334;11.190;2024-01-30T04:21:26;0.60;;;0.60;;
16928;SDS011;8581;47.334;11.190;2024-01-30T04:24:48;0.50;;;0.50;;
16928;SDS011;8581;47.334;11.190;2024-01-30T04:28:10;0.50;;;0.50;;
16928;SDS011;8581;47.334;11.190;2024-01-30T04:31:35;0.40;;;0.40;;
16928;SDS011;8581;47.334;11.190;2024-01-30T04:34:55;0.57;;;0.50;;
16928;SDS011;8581;47.334;11.190;2024-01-30T04:38:17;0.70;;;0.70;;
16928;SDS011;8581;47.334;11.190;2024-01-30T04:41:39;1.33;;;0.60;;
16928;SDS011;8581;47.334;11.190;2024-01-30T04:45:00;0.70;;;0.50;;
16928;SDS011;8581;47.334;11.190;2024-01-30T04:48:22;0.87;;;0.70;;
16928;SDS011;8581;47.334;11.190;2024-01-30T04:51:44;1.47;;;0.70;;
16928;SDS011;8581;47.334;11.190;2024-01-30T04:55:06;1.07;;;0.80;;
16928;SDS011;8581;47.334;11.190;2024-01-30T04:58:28;0.63;;;0.63;;
16928;SDS011;8581;47.334;11.190;2024-01-30T05:01:49;0.70;;;0.70;;
16928;SDS011;8581;47.334;11.190;2024-01-30T05:05:11;0.70;;;0.70;;
16928;SDS011;8581;47.334;11.190;2024-01-30T05:08:33;0.70;;;0.70;;
16928;SDS011;8581;47.334;11.190;2024-01-30T05:11:54;1.03;;;0.60;;
16928;SDS011;8581;47.334;11.190;2024-01-30T05:15:16;2.00;;;0.87;;
16928;SDS011;8581;47.334;11.190;2024-01-30T05:18:38;0.60;;;0.60;;
16928;SDS011;8581;47.334;11.190;2024-01-30T05:21:59;0.40;;;0.40;;
16928;SDS011;8581;47.334;11.190;2024-01-30T05:25:21;0.97;;;0.60;;
16928;SDS011;8581;47.334;11.190;2024-01-30T05:28:42;0.60;;;0.60;;
16928;SDS011;8581;47.334;11.190;2024-01-30T05:32:06;1.00;;;0.60;;
16928;SDS011;8581;47.334;11.190;2024-01-30T05:35:28;0.70;;;0.70;;
16928;SDS011;8581;47.334;11.190;2024-01-30T05:38:49;0.80;;;0.63;;
16928;SDS011;8581;47.334;11.190;2024-01-30T05:42:11;2.33;;;0.60;;
16928;SDS011;8581;47.334;11.190;2024-01-30T05:45:33;2.00;;;0.73;;
16928;SDS011;8581;47.334;11.190;2024-01-30T05:48:54;1.33;;;0.90;;
16928;SDS011;8581;47.334;11.190;2024-01-30T05:52:16;1.20;;;0.73;;
16928;SDS011;8581;47.334;11.190;2024-01-30T05:55:38;0.70;;;0.70;;
16928;SDS011;8581;47.334;11.190;2024-01-30T05:58:59;1.63;;;1.00;;
16928;SDS011;8581;47.334;11.190;2024-01-30T06:02:21;2.40;;;1.40;;
16928;SDS011;8581;47.334;11.190;2024-01-30T06:05:42;7.63;;;2.87;;
16928;SDS011;8581;47.334;11.190;2024-01-30T06:09:05;1.10;;;1.00;;
16928;SDS011;8581;47.334;11.190;2024-01-30T06:12:26;0.77;;;0.77;;
16928;SDS011;8581;47.334;11.190;2024-01-30T06:15:47;0.80;;;0.80;;
16928;SDS011;8581;47.334;11.190;2024-01-30T06:19:09;6.93;;;3.30;;
16928;SDS011;8581;47.334;11.190;2024-01-30T06:22:31;4.00;;;2.67;;
16928;SDS011;8581;47.334;11.190;2024-01-30T06:25:52;2.40;;;1.77;;
16928;SDS011;8581;47.334;11.190;2024-01-30T06:29:14;2.33;;;1.70;;
16928;SDS011;8581;47.334;11.190;2024-01-30T06:32:36;2.73;;;1.60;;
16928;SDS011;8581;47.334;11.190;2024-01-30T06:35:57;2.20;;;1.73;;
16928;SDS011;8581;47.334;11.190;2024-01-30T06:39:19;2.00;;;1.40;;
16928;SDS011;8581;47.334;11.190;2024-01-30T06:42:40;1.67;;;1.20;;
16928;SDS011;8581;47.334;11.190;2024-01-30T06:46:02;1.87;;;1.30;;
16928;SDS011;8581;47.334;11.190;2024-01-30T06:49:24;1.50;;;1.20;;
16928;SDS011;8581;47.334;11.190;2024-01-30T06:52:45;3.37;;;1.27;;
16928;SDS011;8581;47.334;11.190;2024-01-30T06:56:07;3.50;;;2.20;;
16928;SDS011;8581;47.334;11.190;2024-01-30T06:59:29;2.53;;;1.83;;
16928;SDS011;8581;47.334;11.190;2024-01-30T07:02:50;4.53;;;1.83;;
16928;SDS011;8581;47.334;11.190;2024-01-30T07:06:12;7.03;;;6.33;;
16928;SDS011;8581;47.334;11.190;2024-01-30T07:09:33;3.67;;;2.97;;
16928;SDS011;8581;47.334;11.190;2024-01-30T07:12:56;2.60;;;1.83;;
16928;SDS011;8581;47.334;11.190;2024-01-30T07:16:18;4.17;;;2.30;;
16928;SDS011;8581;47.334;11.190;2024-01-30T07:19:39;9.07;;;5.43;;
16928;SDS011;8581;47.334;11.190;2024-01-30T07:23:01;11.13;;;8.50;;
16928;SDS011;8581;47.334;11.190;2024-01-30T07:26:23;7.33;;;4.63;;
16928;SDS011;8581;47.334;11.190;2024-01-30T07:29:44;6.87;;;4.20;;
16928;SDS011;8581;47.334;11.190;2024-01-30T07:33:06;5.97;;;3.93;;
16928;SDS011;8581;47.334;11.190;2024-01-30T07:36:27;4.97;;;3.07;;
16928;SDS011;8581;47.334;11.190;2024-01-30T07:39:49;7.60;;;4.47;;
16928;SDS011;8581;47.334;11.190;2024-01-30T07:43:11;7.10;;;4.20;;
16928;SDS011;8581;47.334;11.190;2024-01-30T07:46:32;8.27;;;4.93;;
16928;SDS011;8581;47.334;11.190;2024-01-30T07:49:54;7.93;;;4.37;;
16928;SDS011;8581;47.334;11.190;2024-01-30T07:53:16;6.60;;;4.20;;
16928;SDS011;8581;47.334;11.190;2024-01-30T07:56:37;3.77;;;2.90;;
16928;SDS011;8581;47.334;11.190;2024-01-30T07:59:59;4.33;;;3.23;;
16928;SDS011;8581;47.334;11.190;2024-01-30T08:03:21;4.60;;;2.13;;
16928;SDS011;8581;47.334;11.190;2024-01-30T08:06:42;2.83;;;2.27;;
16928;SDS011;8581;47.334;11.190;2024-01-30T08:10:04;2.47;;;2.10;;
16928;SDS011;8581;47.334;11.190;2024-01-30T08:13:27;3.20;;;1.87;;
16928;SDS011;8581;47.334;11.190;2024-01-30T08:16:48;3.90;;;2.00;;
16928;SDS011;8581;47.334;11.190;2024-01-30T08:20:10;2.87;;;1.90;;
16928;SDS011;8581;47.334;11.190;2024-01-30T08:23:32;3.70;;;1.90;;
16928;SDS011;8581;47.334;11.190;2024-01-30T08:26:54;2.80;;;1.90;;
16928;SDS011;8581;47.334;11.190;2024-01-30T08:30:15;2.20;;;1.70;;
16928;SDS011;8581;47.334;11.190;2024-01-30T08:33:37;8.10;;;2.03;;
16928;SDS011;8581;47.334;11.190;2024-01-30T08:36:59;2.27;;;1.90;;
16928;SDS011;8581;47.334;11.190;2024-01-30T08:40:20;8.97;;;2.53;;
16928;SDS011;8581;47.334;11.190;2024-01-30T08:43:42;9.40;;;1.20;;
16928;SDS011;8581;47.334;11.190;2024-01-30T08:47:03;8.23;;;1.93;;
16928;SDS011;8581;47.334;11.190;2024-01-30T08:50:25;3.27;;;0.90;;
16928;SDS011;8581;47.334;11.190;2024-01-30T08:53:47;10.40;;;1.20;;
16928;SDS011;8581;47.334;11.190;2024-01-30T08:57:09;8.17;;;1.20;;
16928;SDS011;8581;47.334;11.190;2024-01-30T09:00:31;8.17;;;1.50;;
16928;SDS011;8581;47.334;11.190;2024-01-30T09:03:52;5.10;;;2.17;;
16928;SDS011;8581;47.334;11.190;2024-01-30T09:07:14;2.37;;;1.93;;
16928;SDS011;8581;47.334;11.190;2024-01-30T09:10:36;2.43;;;1.70;;
16928;SDS011;8581;47.334;11.190;2024-01-30T09:13:57;3.27;;;1.70;;
16928;SDS011;8581;47.334;11.190;2024-01-30T09:17:19;3.97;;;3.37;;
16928;SDS011;8581;47.334;11.190;2024-01-30T09:20:41;3.40;;;1.63;;
16928;SDS011;8581;47.334;11.190;2024-01-30T09:24:03;0.60;;;0.60;;
16928;SDS011;8581;47.334;11.190;2024-01-30T09:27:25;0.57;;;0.57;;
16928;SDS011;8581;47.334;11.190;2024-01-30T09:30:46;1.93;;;0.50;;
16928;SDS011;8581;47.334;11.190;2024-01-30T09:34:08;0.77;;;0.70;;
16928;SDS011;8581;47.334;11.190;2024-01-30T09:37:30;4.90;;;0.83;;
16928;SDS011;8581;47.334;11.190;2024-01-30T09:40:53;3.63;;;1.00;;
16928;SDS011;8581;47.334;11.190;2024-01-30T09:44:13;2.57;;;1.50;;
16928;SDS011;8581;47.334;11.190;2024-01-30T09:47:40;5.23;;;2.70;;
16928;SDS011;8581;47.334;11.190;2024-01-30T09:51:03;2.83;;;1.60;;
16928;SDS011;8581;47.334;11.190;2024-01-30T09:54:25;4.53;;;0.90;;
16928;SDS011;8581;47.334;11.190;2024-01-30T09:57:47;0.60;;;0.40;;
16928;SDS011;8581;47.334;11.190;2024-01-30T10:01:08;0.70;;;0.60;;
16928;SDS011;8581;47.334;11.190;2024-01-30T10:04:30;2.13;;;0.50;;
16928;SDS011;8581;47.334;11.190;2024-01-30T10:07:53;0.73;;;0.43;;
16928;SDS011;8581;47.334;11.190;2024-01-30T10:11:15;1.43;;;0.40;;
16928;SDS011;8581;47.334;11.190;2024-01-30T10:14:39;1.73;;;0.50;;
16928;SDS011;8581;47.334;11.190;2024-01-30T10:18:00;1.40;;;0.60;;
16928;SDS011;8581;47.334;11.190;2024-01-30T10:21:22;5.00;;;0.80;;
16928;SDS011;8581;47.334;11.190;2024-01-30T10:24:44;0.83;;;0.50;;
16928;SDS011;8581;47.334;11.190;2024-01-30T10:28:05;2.97;;;0.63;;
16928;SDS011;8581;47.334;11.190;2024-01-30T10:31:27;2.27;;;0.50;;
16928;SDS011;8581;47.334;11.190;2024-01-30T10:34:49;2.30;;;0.70;;
16928;SDS011;8581;47.334;11.190;2024-01-30T10:38:10;3.30;;;0.70;;
16928;SDS011;8581;47.334;11.190;2024-01-30T10:41:32;0.40;;;0.33;;
16928;SDS011;8581;47.334;11.190;2024-01-30T10:44:59;1.60;;;0.70;;
16928;SDS011;8581;47.334;11.190;2024-01-30T10:48:18;0.37;;;0.37;;
16928;SDS011;8581;47.334;11.190;2024-01-30T10:51:40;2.80;;;0.67;;
16928;SDS011;8581;47.334;11.190;2024-01-30T10:55:01;11.97;;;1.80;;
16928;SDS011;8581;47.334;11.190;2024-01-30T10:58:23;1.70;;;0.80;;
16928;SDS011;8581;47.334;11.190;2024-01-30T11:01:45;4.00;;;1.23;;
16928;SDS011;8581;47.334;11.190;2024-01-30T11:05:07;4.93;;;1.00;;
16928;SDS011;8581;47.334;11.190;2024-01-30T11:08:31;4.65;;;1.20;;
16928;SDS011;8581;47.334;11.190;2024-01-30T11:11:51;0.80;;;0.40;;
16928;SDS011;8581;47.334;11.190;2024-01-30T11:15:13;2.60;;;0.55;;
16928;SDS011;8581;47.334;11.190;2024-01-30T11:18:35;2.27;;;0.70;;
16928;SDS011;8581;47.334;11.190;2024-01-30T11:21:56;1.95;;;0.40;;
16928;SDS011;8581;47.334;11.190;2024-01-30T11:25:19;0.60;;;0.40;;
16928;SDS011;8581;47.334;11.190;2024-01-30T11:28:41;1.25;;;0.40;;
16928;SDS011;8581;47.334;11.190;2024-01-30T11:32:04;1.07;;;0.40;;
16928;SDS011;8581;47.334;11.190;2024-01-30T11:35:26;0.62;;;0.40;;
16928;SDS011;8581;47.334;11.190;2024-01-30T11:38:48;0.42;;;0.30;;
16928;SDS011;8581;47.334;11.190;2024-01-30T11:42:09;1.25;;;0.50;;
16928;SDS011;8581;47.334;11.190;2024-01-30T11:45:31;0.90;;;0.30;;
16928;SDS011;8581;47.334;11.190;2024-01-30T11:48:53;0.80;;;0.40;;
16928;SDS011;8581;47.334;11.190;2024-01-30T11:52:14;0.50;;;0.50;;
16928;SDS011;8581;47.334;11.190;2024-01-30T11:55:36;7.83;;;1.50;;
16928;SDS011;8581;47.334;11.190;2024-01-30T11:58:57;2.17;;;1.10;;
16928;SDS011;8581;47.334;11.190;2024-01-30T12:02:19;4.28;;;1.40;;
16928;SDS011;8581;47.334;11.190;2024-01-30T12:05:41;2.52;;;1.17;;
16928;SDS011;8581;47.334;11.190;2024-01-30T12:09:03;4.40;;;1.20;;
16928;SDS011;8581;47.334;11.190;2024-01-30T12:12:25;1.10;;;0.75;;
16928;SDS011;8581;47.334;11.190;2024-01-30T12:15:47;1.92;;;1.00;;
16928;SDS011;8581;47.334;11.190;2024-01-30T12:19:08;2.52;;;1.10;;
16928;SDS011;8581;47.334;11.190;2024-01-30T12:22:30;2.92;;;0.95;;
16928;SDS011;8581;47.334;11.190;2024-01-30T12:25:52;3.15;;;1.10;;
16928;SDS011;8581;47.334;11.190;2024-01-30T12:29:14;4.37;;;1.17;;
16928;SDS011;8581;47.334;11.190;2024-01-30T12:32:35;5.20;;;1.32;;
16928;SDS011;8581;47.334;11.190;2024-01-30T12:35:57;2.40;;;0.82;;
16928;SDS011;8581;47.334;11.190;2024-01-30T12:39:18;7.78;;;1.27;;
16928;SDS011;8581;47.334;11.190;2024-01-30T12:42:40;1.95;;;1.05;;
16928;SDS011;8581;47.334;11.190;2024-01-30T12:46:02;1.98;;;1.00;;
16928;SDS011;8581;47.334;11.190;2024-01-30T12:49:24;1.72;;;1.00;;
16928;SDS011;8581;47.334;11.190;2024-01-30T12:52:46;2.65;;;0.70;;
16928;SDS011;8581;47.334;11.190;2024-01-30T12:56:08;1.82;;;0.90;;
16928;SDS011;8581;47.334;11.190;2024-01-30T12:59:29;3.83;;;0.80;;
16928;SDS011;8581;47.334;11.190;2024-01-30T13:02:51;2.27;;;1.15;;
16928;SDS011;8581;47.334;11.190;2024-01-30T13:06:12;10.70;;;1.50;;
16928;SDS011;8581;47.334;11.190;2024-01-30T13:09:34;2.77;;;0.88;;
16928;SDS011;8581;47.334;11.190;2024-01-30T13:12:56;4.62;;;1.10;;
16928;SDS011;8581;47.334;11.190;2024-01-30T13:16:17;6.33;;;1.50;;
16928;SDS011;8581;47.334;11.190;2024-01-30T13:19:39;2.70;;;1.35;;
16928;SDS011;8581;47.334;11.190;2024-01-30T13:23:01;9.03;;;1.50;;
16928;SDS011;8581;47.334;11.190;2024-01-30T13:26:22;10.18;;;1.67;;
16928;SDS011;8581;47.334;11.190;2024-01-30T13:29:44;3.72;;;1.10;;
16928;SDS011;8581;47.334;11.190;2024-01-30T13:33:06;2.83;;;1.00;;
16928;SDS011;8581;47.334;11.190;2024-01-30T13:36:27;4.28;;;1.10;;
16928;SDS011;8581;47.334;11.190;2024-01-30T13:39:49;5.25;;;1.15;;
16928;SDS011;8581;47.334;11.190;2024-01-30T13:43:11;9.00;;;1.60;;
16928;SDS011;8581;47.334;11.190;2024-01-30T13:46:32;8.25;;;1.17;;
16928;SDS011;8581;47.334;11.190;2024-01-30T13:49:54;0.75;;;0.75;;
16928;SDS011;8581;47.334;11.190;2024-01-30T13:53:16;6.08;;;1.45;;
16928;SDS011;8581;47.334;11.190;2024-01-30T13:56:37;4.87;;;1.00;;
16928;SDS011;8581;47.334;11.190;2024-01-30T13:59:59;6.08;;;1.60;;
16928;SDS011;8581;47.334;11.190;2024-01-30T14:03:20;13.22;;;1.90;;
16928;SDS011;8581;47.334;11.190;2024-01-30T14:06:42;5.12;;;1.20;;
16928;SDS011;8581;47.334;11.190;2024-01-30T14:10:04;8.60;;;2.08;;
16928;SDS011;8581;47.334;11.190;2024-01-30T14:13:26;10.63;;;1.57;;
16928;SDS011;8581;47.334;11.190;2024-01-30T14:16:48;7.05;;;1.45;;
16928;SDS011;8581;47.334;11.190;2024-01-30T14:20:10;5.55;;;1.60;;
16928;SDS011;8581;47.334;11.190;2024-01-30T14:23:31;3.83;;;1.07;;
16928;SDS011;8581;47.334;11.190;2024-01-30T14:26:53;5.45;;;1.15;;
16928;SDS011;8581;47.334;11.190;2024-01-30T14:30:15;2.08;;;1.05;;
16928;SDS011;8581;47.334;11.190;2024-01-30T14:33:36;5.00;;;1.50;;
16928;SDS011;8581;47.334;11.190;2024-01-30T14:36:58;6.05;;;1.22;;
16928;SDS011;8581;47.334;11.190;2024-01-30T14:40:20;7.17;;;1.75;;
16928;SDS011;8581;47.334;11.190;2024-01-30T14:43:41;3.08;;;1.62;;
16928;SDS011;8581;47.334;11.190;2024-01-30T14:47:03;4.70;;;1.62;;
16928;SDS011;8581;47.334;11.190;2024-01-30T14:50:25;3.10;;;1.40;;
16928;SDS011;8581;47.334;11.190;2024-01-30T14:53:46;4.53;;;1.75;;
16928;SDS011;8581;47.334;11.190;2024-01-30T14:57:08;4.72;;;1.60;;
16928;SDS011;8581;47.334;11.190;2024-01-30T15:00:30;3.83;;;1.37;;
16928;SDS011;8581;47.334;11.190;2024-01-30T15:03:51;3.42;;;1.62;;
16928;SDS011;8581;47.334;11.190;2024-01-30T15:07:13;2.30;;;1.47;;
16928;SDS011;8581;47.334;11.190;2024-01-30T15:10:35;4.50;;;1.40;;
16928;SDS011;8581;47.334;11.190;2024-01-30T15:13:56;3.85;;;1.42;;
16928;SDS011;8581;47.334;11.190;2024-01-30T15:17:18;6.70;;;1.40;;
16928;SDS011;8581;47.334;11.190;2024-01-30T15:20:39;1.37;;;1.10;;
16928;SDS011;8581;47.334;11.190;2024-01-30T15:24:02;8.53;;;2.17;;
16928;SDS011;8581;47.334;11.190;2024-01-30T15:27:23;7.00;;;1.60;;
16928;SDS011;8581;47.334;11.190;2024-01-30T15:30:44;4.50;;;1.57;;
16928;SDS011;8581;47.334;11.190;2024-01-30T15:34:06;4.30;;;1.40;;
16928;SDS011;8581;47.334;11.190;2024-01-30T15:37:28;7.43;;;1.80;;
16928;SDS011;8581;47.334;11.190;2024-01-30T15:40:49;4.77;;;1.40;;
16928;SDS011;8581;47.334;11.190;2024-01-30T15:44:11;2.83;;;1.40;;
16928;SDS011;8581;47.334;11.190;2024-01-30T15:47:33;4.37;;;1.27;;
16928;SDS011;8581;47.334;11.190;2024-01-30T15:50:54;4.43;;;1.17;;
16928;SDS011;8581;47.334;11.190;2024-01-30T15:54:16;3.63;;;1.40;;
16928;SDS011;8581;47.334;11.190;2024-01-30T15:57:38;4.77;;;1.37;;
16928;SDS011;8581;47.334;11.190;2024-01-30T16:01:00;4.47;;;1.57;;
16928;SDS011;8581;47.334;11.190;2024-01-30T16:04:21;4.90;;;2.83;;
16928;SDS011;8581;47.334;11.190;2024-01-30T16:07:43;32.73;;;29.33;;
16928;SDS011;8581;47.334;11.190;2024-01-30T16:11:05;18.23;;;16.40;;
16928;SDS011;8581;47.334;11.190;2024-01-30T16:14:26;36.70;;;32.70;;
16928;SDS011;8581;47.334;11.190;2024-01-30T16:17:48;65.53;;;48.00;;
16928;SDS011;8581;47.334;11.190;2024-01-30T16:21:09;24.47;;;18.13;;
16928;SDS011;8581;47.334;11.190;2024-01-30T16:24:37;18.87;;;14.13;;
16928;SDS011;8581;47.334;11.190;2024-01-30T16:27:59;18.00;;;12.70;;
16928;SDS011;8581;47.334;11.190;2024-01-30T16:31:20;19.83;;;13.00;;
16928;SDS011;8581;47.334;11.190;2024-01-30T16:34:42;13.63;;;6.90;;
16928;SDS011;8581;47.334;11.190;2024-01-30T16:38:03;6.10;;;3.70;;
16928;SDS011;8581;47.334;11.190;2024-01-30T16:41:25;11.77;;;9.93;;
16928;SDS011;8581;47.334;11.190;2024-01-30T16:44:47;7.53;;;2.90;;
16928;SDS011;8581;47.334;11.190;2024-01-30T16:48:08;13.47;;;4.83;;
16928;SDS011;8581;47.334;11.190;2024-01-30T16:51:30;15.20;;;5.23;;
16928;SDS011;8581;47.334;11.190;2024-01-30T16:54:52;14.03;;;5.10;;
16928;SDS011;8581;47.334;11.190;2024-01-30T16:58:13;11.77;;;5.27;;
16928;SDS011;8581;47.334;11.190;2024-01-30T17:01:35;9.13;;;6.67;;
16928;SDS011;8581;47.334;11.190;2024-01-30T17:04:57;11.50;;;5.97;;
16928;SDS011;8581;47.334;11.190;2024-01-30T17:08:18;12.57;;;6.03;;
16928;SDS011;8581;47.334;11.190;2024-01-30T17:11:41;13.07;;;6.60;;
16928;SDS011;8581;47.334;11.190;2024-01-30T17:15:03;15.00;;;6.37;;
16928;SDS011;8581;47.334;11.190;2024-01-30T17:18:25;12.60;;;8.20;;
16928;SDS011;8581;47.334;11.190;2024-01-30T17:21:47;12.03;;;6.77;;
16928;SDS011;8581;47.334;11.190;2024-01-30T17:25:08;11.80;;;7.30;;
16928;SDS011;8581;47.334;11.190;2024-01-30T17:28:30;12.90;;;10.27;;
16928;SDS011;8581;47.334;11.190;2024-01-30T17:31:51;12.60;;;7.77;;
16928;SDS011;8581;47.334;11.190;2024-01-30T17:35:13;10.40;;;8.23;;
16928;SDS011;8581;47.334;11.190;2024-01-30T17:38:35;9.13;;;5.73;;
16928;SDS011;8581;47.334;11.190;2024-01-30T17:41:56;7.90;;;6.17;;
16928;SDS011;8581;47.334;11.190;2024-01-30T17:45:18;7.60;;;6.00;;
16928;SDS011;8581;47.334;11.190;2024-01-30T17:48:40;6.67;;;4.53;;
16928;SDS011;8581;47.334;11.190;2024-01-30T17:52:02;5.80;;;3.97;;
16928;SDS011;8581;47.334;11.190;2024-01-30T17:55:23;5.73;;;4.00;;
16928;SDS011;8581;47.334;11.190;2024-01-30T17:58:45;7.97;;;4.17;;
16928;SDS011;8581;47.334;11.190;2024-01-30T18:02:06;6.67;;;3.97;;
16928;SDS011;8581;47.334;11.190;2024-01-30T18:05:28;3.07;;;2.57;;
16928;SDS011;8581;47.334;11.190;2024-01-30T18:08:50;5.37;;;2.73;;
16928;SDS011;8581;47.334;11.190;2024-01-30T18:12:11;5.17;;;2.40;;
16928;SDS011;8581;47.334;11.190;2024-01-30T18:15:33;4.37;;;2.70;;
16928;SDS011;8581;47.334;11.190;2024-01-30T18:18:54;5.00;;;2.73;;
16928;SDS011;8581;47.334;11.190;2024-01-30T18:22:16;3.30;;;1.80;;
16928;SDS011;8581;47.334;11.190;2024-01-30T18:25:38;2.20;;;1.20;;
16928;SDS011;8581;47.334;11.190;2024-01-30T18:28:59;1.80;;;1.13;;
16928;SDS011;8581;47.334;11.190;2024-01-30T18:32:21;1.27;;;0.80;;
16928;SDS011;8581;47.334;11.190;2024-01-30T18:35:43;1.10;;;1.00;;
16928;SDS011;8581;47.334;11.190;2024-01-30T18:39:04;1.17;;;0.73;;
16928;SDS011;8581;47.334;11.190;2024-01-30T18:42:26;1.37;;;1.00;;
16928;SDS011;8581;47.334;11.190;2024-01-30T18:45:51;0.80;;;0.80;;
16928;SDS011;8581;47.334;11.190;2024-01-30T18:49:14;1.00;;;0.90;;
16928;SDS011;8581;47.334;11.190;2024-01-30T18:52:35;1.27;;;1.10;;
16928;SDS011;8581;47.334;11.190;2024-01-30T18:55:57;1.40;;;1.30;;
16928;SDS011;8581;47.334;11.190;2024-01-30T18:59:19;4.87;;;1.33;;
16928;SDS011;8581;47.334;11.190;2024-01-30T19:02:40;3.73;;;1.43;;
16928;SDS011;8581;47.334;11.190;2024-01-30T19:06:02;3.83;;;2.30;;
16928;SDS011;8581;47.334;11.190;2024-01-30T19:09:25;3.83;;;1.13;;
16928;SDS011;8581;47.334;11.190;2024-01-30T19:12:46;1.97;;;1.20;;
16928;SDS011;8581;47.334;11.190;2024-01-30T19:16:08;2.70;;;1.80;;
16928;SDS011;8581;47.334;11.190;2024-01-30T19:19:29;2.27;;;2.07;;
16928;SDS011;8581;47.334;11.190;2024-01-30T19:22:51;1.90;;;1.53;;
16928;SDS011;8581;47.334;11.190;2024-01-30T19:26:13;5.23;;;1.80;;
16928;SDS011;8581;47.334;11.190;2024-01-30T19:29:34;2.43;;;2.23;;
16928;SDS011;8581;47.334;11.190;2024-01-30T19:32:56;5.87;;;2.90;;
16928;SDS011;8581;47.334;11.190;2024-01-30T19:36:18;5.40;;;2.73;;
16928;SDS011;8581;47.334;11.190;2024-01-30T19:39:39;4.43;;;1.80;;
16928;SDS011;8581;47.334;11.190;2024-01-30T19:43:01;3.37;;;1.90;;
16928;SDS011;8581;47.334;11.190;2024-01-30T19:46:23;5.20;;;3.47;;
16928;SDS011;8581;47.334;11.190;2024-01-30T19:49:44;5.00;;;3.33;;
16928;SDS011;8581;47.334;11.190;2024-01-30T19:53:06;4.23;;;3.17;;
16928;SDS011;8581;47.334;11.190;2024-01-30T19:56:27;3.47;;;2.80;;
16928;SDS011;8581;47.334;11.190;2024-01-30T19:59:49;4.70;;;2.60;;
16928;SDS011;8581;47.334;11.190;2024-01-30T20:03:11;1.70;;;1.53;;
16928;SDS011;8581;47.334;11.190;2024-01-30T20:06:32;2.17;;;1.13;;
16928;SDS011;8581;47.334;11.190;2024-01-30T20:09:54;3.47;;;1.37;;
16928;SDS011;8581;47.334;11.190;2024-01-30T20:13:16;2.50;;;2.20;;